createdAt,value
2023-03-18T00:01:04.668Z,7.74
2023-03-18T00:02:08.237Z,7.70
2023-03-18T00:03:11.906Z,7.70
2023-03-18T00:04:14.164Z,7.69
2023-03-18T00:05:16.397Z,7.65
2023-03-18T00:06:20.266Z,7.65
2023-03-18T00:07:23.080Z,7.64
2023-03-18T00:08:25.837Z,7.65
2023-03-18T00:09:32.523Z,7.64
2023-03-18T00:10:35.357Z,7.61
2023-03-18T00:11:40.878Z,7.56
2023-03-18T00:12:43.995Z,7.56
2023-03-18T00:13:47.579Z,7.56
2023-03-18T00:14:50.050Z,7.53
2023-03-18T00:15:53.433Z,7.51
2023-03-18T00:16:56.271Z,7.48
2023-03-18T00:17:59.992Z,7.47
2023-03-18T00:19:02.973Z,7.48
2023-03-18T00:20:07.079Z,7.48
2023-03-18T00:21:10.139Z,7.46
2023-03-18T00:22:12.671Z,7.47
2023-03-18T00:23:14.853Z,7.46
2023-03-18T00:24:18.838Z,7.45
2023-03-18T00:25:21.561Z,7.43
2023-03-18T00:26:27.858Z,7.41
2023-03-18T00:27:30.545Z,7.41
2023-03-18T00:28:32.875Z,7.41
2023-03-18T00:29:38.576Z,7.40
2023-03-18T00:30:42.897Z,7.40
2023-03-18T00:31:45.244Z,7.40
2023-03-18T00:32:47.607Z,7.41
2023-03-18T00:33:50.689Z,7.39
2023-03-18T00:34:55.210Z,7.40
2023-03-18T00:35:58.239Z,7.36
2023-03-18T00:37:00.466Z,7.35
2023-03-18T00:38:07.708Z,7.37
2023-03-18T00:39:11.156Z,7.36
2023-03-18T00:40:17.559Z,7.36
2023-03-18T00:41:21.918Z,7.37
2023-03-18T00:42:25.850Z,7.33
2023-03-18T00:43:33.756Z,7.30
2023-03-18T00:44:40.222Z,7.32
2023-03-18T00:45:43.909Z,7.27
2023-03-18T00:46:57.395Z,7.28
2023-03-18T00:47:59.621Z,7.28
2023-03-18T00:49:05.261Z,7.28
2023-03-18T00:50:08.930Z,7.26
2023-03-18T00:51:14.232Z,7.28
2023-03-18T00:52:16.526Z,7.28
2023-03-18T00:53:18.855Z,7.26
2023-03-18T00:54:21.335Z,7.22
2023-03-18T00:55:24.424Z,7.25
2023-03-18T00:56:29.550Z,7.22
2023-03-18T00:57:31.897Z,7.20
2023-03-18T00:58:35.238Z,7.20
2023-03-18T00:59:37.468Z,7.18
2023-03-18T01:00:41.391Z,7.18
2023-03-18T01:01:43.868Z,7.16
2023-03-18T01:02:48.633Z,7.17
2023-03-18T01:03:50.836Z,7.19
2023-03-18T01:04:57.197Z,7.16
2023-03-18T01:06:00.715Z,7.14
2023-03-18T01:07:02.995Z,7.15
2023-03-18T01:08:05.469Z,7.15
2023-03-18T01:09:09.111Z,7.18
2023-03-18T01:10:12.898Z,7.13
2023-03-18T01:11:17.514Z,7.15
2023-03-18T01:12:19.709Z,7.15
2023-03-18T01:13:23.987Z,7.13
2023-03-18T01:14:28.768Z,7.15
2023-03-18T01:15:31.103Z,7.12
2023-03-18T01:16:33.628Z,7.12
2023-03-18T01:17:36.181Z,7.09
2023-03-18T01:18:40.245Z,7.12
2023-03-18T01:19:43.600Z,7.10
2023-03-18T01:20:45.784Z,7.11
2023-03-18T01:21:49.116Z,7.11
2023-03-18T01:22:51.585Z,7.09
2023-03-18T01:23:54.677Z,7.10
2023-03-18T01:24:57.787Z,7.09
2023-03-18T01:26:07.323Z,7.10
2023-03-18T01:27:10.950Z,7.09
2023-03-18T01:28:14.792Z,7.07
2023-03-18T01:29:19.223Z,7.05
2023-03-18T01:30:23.713Z,7.03
2023-03-18T01:31:28.748Z,7.05
2023-03-18T01:32:36.139Z,7.05
2023-03-18T01:33:38.654Z,7.02
2023-03-18T01:34:41.589Z,7.04
2023-03-18T01:35:43.950Z,7.04
2023-03-18T01:36:48.124Z,7.05
2023-03-18T01:37:50.406Z,7.06
2023-03-18T01:38:52.644Z,7.05
2023-03-18T01:39:55.455Z,7.03
2023-03-18T01:41:00.988Z,7.03
2023-03-18T01:42:05.581Z,7.03
2023-03-18T01:43:20.593Z,7.03
2023-03-18T01:44:24.863Z,7.02
2023-03-18T01:45:30.631Z,7.02
2023-03-18T01:46:42.989Z,7.00
2023-03-18T01:47:46.684Z,6.98
2023-03-18T01:48:52.143Z,7.01
2023-03-18T01:49:54.655Z,6.97
2023-03-18T01:51:01.756Z,6.95
2023-03-18T01:52:06.340Z,6.93
2023-03-18T01:53:14.074Z,6.93
2023-03-18T01:54:17.163Z,6.91
2023-03-18T01:55:22.791Z,6.92
2023-03-18T01:56:25.250Z,6.92
2023-03-18T01:57:30.273Z,6.90
2023-03-18T01:58:54.028Z,6.88
2023-03-18T01:59:57.513Z,6.89
2023-03-18T02:01:18.177Z,6.90
2023-03-18T02:02:22.148Z,6.89
2023-03-18T02:03:27.621Z,6.86
2023-03-18T02:04:36.607Z,6.86
2023-03-18T02:05:40.410Z,6.89
2023-03-18T02:06:44.317Z,6.83
2023-03-18T02:07:48.461Z,6.86
2023-03-18T02:08:50.948Z,6.87
2023-03-18T02:09:54.756Z,6.86
2023-03-18T02:10:57.136Z,6.88
2023-03-18T02:12:01.613Z,6.86
2023-03-18T02:13:08.775Z,6.86
2023-03-18T02:14:15.399Z,6.86
2023-03-18T02:15:21.638Z,6.86
2023-03-18T02:16:34.722Z,6.87
2023-03-18T02:17:41.463Z,6.82
2023-03-18T02:18:49.327Z,6.80
2023-03-18T02:20:22.461Z,6.83
2023-03-18T02:22:16.406Z,6.83
2023-03-18T02:23:25.835Z,6.82
2023-03-18T02:24:46.451Z,6.80
2023-03-18T02:26:29.129Z,6.81
2023-03-18T02:27:36.225Z,6.80
2023-03-18T02:28:41.325Z,6.80
2023-03-18T02:29:45.655Z,6.79
2023-03-18T02:30:55.981Z,6.80
2023-03-18T02:32:03.086Z,6.78
2023-03-18T02:33:06.384Z,6.78
2023-03-18T02:34:10.349Z,6.78
2023-03-18T02:35:14.653Z,6.79
2023-03-18T02:36:28.433Z,6.79
2023-03-18T02:37:31.126Z,6.78
2023-03-18T02:38:35.380Z,6.77
2023-03-18T02:39:38.817Z,6.74
2023-03-18T02:40:42.967Z,6.72
2023-03-18T02:41:51.297Z,6.74
2023-03-18T02:42:55.307Z,6.77
2023-03-18T02:44:00.289Z,6.76
2023-03-18T02:45:33.615Z,6.74
2023-03-18T02:47:03.343Z,6.72
2023-03-18T02:48:09.235Z,6.70
2023-03-18T02:49:12.191Z,6.71
2023-03-18T02:50:14.901Z,6.70
2023-03-18T02:51:18.553Z,6.70
2023-03-18T02:52:21.188Z,6.69
2023-03-18T02:53:23.453Z,6.69
2023-03-18T02:54:28.922Z,6.69
2023-03-18T02:55:31.368Z,6.67
2023-03-18T02:56:33.741Z,6.66
2023-03-18T02:57:37.422Z,6.67
2023-03-18T02:58:41.228Z,6.68
2023-03-18T02:59:44.010Z,6.66
2023-03-18T03:00:46.409Z,6.65
2023-03-18T03:01:51.765Z,6.66
2023-03-18T03:02:54.199Z,6.65
2023-03-18T03:03:56.580Z,6.65
2023-03-18T03:04:59.370Z,6.62
2023-03-18T03:06:03.501Z,6.62
2023-03-18T03:07:09.042Z,6.60
2023-03-18T03:08:15.755Z,6.61
2023-03-18T03:09:22.818Z,6.59
2023-03-18T03:10:25.892Z,6.56
2023-03-18T03:11:28.926Z,6.57
2023-03-18T03:12:37.969Z,6.56
2023-03-18T03:13:42.844Z,6.56
2023-03-18T03:14:48.203Z,6.56
2023-03-18T03:15:51.652Z,6.54
2023-03-18T03:16:54.232Z,6.55
2023-03-18T03:17:58.603Z,6.48
2023-03-18T03:19:01.070Z,6.50
2023-03-18T03:20:06.811Z,6.52
2023-03-18T03:21:10.001Z,6.51
2023-03-18T03:22:12.432Z,6.48
2023-03-18T03:23:16.842Z,6.47
2023-03-18T03:24:19.064Z,6.49
2023-03-18T03:25:23.023Z,6.47
2023-03-18T03:26:25.722Z,6.46
2023-03-18T03:27:28.768Z,6.46
2023-03-18T03:28:32.951Z,6.48
2023-03-18T03:29:35.768Z,6.49
2023-03-18T03:30:39.330Z,6.50
2023-03-18T03:31:41.796Z,6.48
2023-03-18T03:32:44.695Z,6.50
2023-03-18T03:33:48.346Z,6.50
2023-03-18T03:34:52.008Z,6.52
2023-03-18T03:35:54.915Z,6.51
2023-03-18T03:36:58.366Z,6.52
2023-03-18T03:38:02.195Z,6.51
2023-03-18T03:39:04.704Z,6.48
2023-03-18T03:40:12.440Z,6.50
2023-03-18T03:41:16.182Z,6.51
2023-03-18T03:42:19.154Z,6.50
2023-03-18T03:43:21.470Z,6.47
2023-03-18T03:44:24.548Z,6.50
2023-03-18T03:45:27.373Z,6.50
2023-03-18T03:46:29.836Z,6.47
2023-03-18T03:47:33.790Z,6.48
2023-03-18T03:48:36.199Z,6.47
2023-03-18T03:49:39.818Z,6.47
2023-03-18T03:50:42.121Z,6.47
2023-03-18T03:51:44.569Z,6.47
2023-03-18T03:52:47.313Z,6.44
2023-03-18T03:53:49.625Z,6.41
2023-03-18T03:54:52.494Z,6.43
2023-03-18T03:55:57.368Z,6.43
2023-03-18T03:57:01.513Z,6.44
2023-03-18T03:58:04.799Z,6.45
2023-03-18T03:59:08.682Z,6.46
2023-03-18T04:00:31.157Z,6.43
2023-03-18T04:01:34.838Z,6.40
2023-03-18T04:02:37.610Z,6.43
2023-03-18T04:03:40.484Z,6.44
2023-03-18T04:04:43.631Z,6.42
2023-03-18T04:05:54.027Z,6.42
2023-03-18T04:06:59.361Z,6.42
2023-03-18T04:08:01.836Z,6.41
2023-03-18T04:09:10.181Z,6.40
2023-03-18T04:10:15.107Z,6.41
2023-03-18T04:11:17.563Z,6.39
2023-03-18T04:12:20.212Z,6.39
2023-03-18T04:13:29.475Z,6.40
2023-03-18T04:14:31.853Z,6.40
2023-03-18T04:15:36.379Z,6.38
2023-03-18T04:16:48.343Z,6.37
2023-03-18T04:17:50.694Z,6.38
2023-03-18T04:18:54.408Z,6.38
2023-03-18T04:19:58.804Z,6.38
2023-03-18T04:21:06.673Z,6.40
2023-03-18T04:22:16.847Z,6.38
2023-03-18T04:23:19.766Z,6.39
2023-03-18T04:24:22.370Z,6.38
2023-03-18T04:25:25.773Z,6.37
2023-03-18T04:26:29.192Z,6.34
2023-03-18T04:27:34.910Z,6.33
2023-03-18T04:28:42.065Z,6.32
2023-03-18T04:29:46.769Z,6.32
2023-03-18T04:30:49.353Z,6.29
2023-03-18T04:31:52.887Z,6.27
2023-03-18T04:32:56.280Z,6.28
2023-03-18T04:34:00.505Z,6.27
2023-03-18T04:35:03.416Z,6.24
2023-03-18T04:36:06.125Z,6.25
2023-03-18T04:37:10.273Z,6.21
2023-03-18T04:38:14.432Z,6.21
2023-03-18T04:39:17.135Z,6.21
2023-03-18T04:40:20.320Z,6.17
2023-03-18T04:41:22.869Z,6.17
2023-03-18T04:42:25.356Z,6.18
2023-03-18T04:43:27.921Z,6.17
2023-03-18T04:44:30.626Z,6.15
2023-03-18T04:45:33.314Z,6.11
2023-03-18T04:46:38.072Z,6.10
2023-03-18T04:47:40.747Z,6.09
2023-03-18T04:48:43.351Z,6.10
2023-03-18T04:49:46.041Z,6.07
2023-03-18T04:50:50.309Z,6.05
2023-03-18T04:51:58.557Z,6.05
2023-03-18T04:53:06.587Z,6.03
2023-03-18T04:54:09.218Z,6.04
2023-03-18T04:55:14.250Z,6.05
2023-03-18T04:56:16.539Z,6.03
2023-03-18T04:57:23.826Z,6.02
2023-03-18T04:58:30.290Z,6.02
2023-03-18T04:59:45.346Z,6.01
2023-03-18T05:00:47.659Z,5.98
2023-03-18T05:01:57.606Z,5.95
2023-03-18T05:02:59.790Z,5.95
2023-03-18T05:04:02.883Z,5.94
2023-03-18T05:05:14.549Z,5.92
2023-03-18T05:06:25.587Z,5.93
2023-03-18T05:07:34.020Z,5.87
2023-03-18T05:08:43.419Z,5.88
2023-03-18T05:09:46.102Z,5.89
2023-03-18T05:10:50.904Z,5.89
2023-03-18T05:11:54.424Z,5.93
2023-03-18T05:13:05.120Z,5.94
2023-03-18T05:14:09.286Z,5.92
2023-03-18T05:15:19.647Z,5.93
2023-03-18T05:16:35.648Z,5.94
2023-03-18T05:17:38.523Z,5.95
2023-03-18T05:18:41.772Z,5.95
2023-03-18T05:19:47.040Z,5.96
2023-03-18T05:20:58.042Z,5.96
2023-03-18T05:22:00.510Z,5.95
2023-03-18T05:23:04.408Z,5.94
2023-03-18T05:24:16.023Z,5.93
2023-03-18T05:25:19.233Z,5.93
2023-03-18T05:26:21.860Z,5.93
2023-03-18T05:27:25.280Z,5.90
2023-03-18T05:28:34.559Z,5.92
2023-03-18T05:29:47.093Z,5.91
2023-03-18T05:31:01.852Z,5.90
2023-03-18T05:32:07.213Z,5.91
2023-03-18T05:33:09.831Z,5.88
2023-03-18T05:34:18.154Z,5.88
2023-03-18T05:35:22.076Z,5.86
2023-03-18T05:36:25.835Z,5.83
2023-03-18T05:37:36.900Z,5.82
2023-03-18T05:38:42.708Z,5.82
2023-03-18T05:39:45.656Z,5.82
2023-03-18T05:40:50.399Z,5.82
2023-03-18T05:41:58.943Z,5.85
2023-03-18T05:43:04.503Z,5.85
2023-03-18T05:44:27.204Z,5.83
2023-03-18T05:45:32.740Z,5.85
2023-03-18T05:46:35.175Z,5.82
2023-03-18T05:47:44.402Z,5.82
2023-03-18T05:48:48.274Z,5.81
2023-03-18T05:49:50.503Z,5.80
2023-03-18T05:50:56.456Z,5.78
2023-03-18T05:52:01.471Z,5.79
2023-03-18T05:53:16.881Z,5.79
2023-03-18T05:54:20.974Z,5.78
2023-03-18T05:55:24.020Z,5.77
2023-03-18T05:56:26.905Z,5.74
2023-03-18T05:57:33.643Z,5.78
2023-03-18T05:58:39.109Z,5.79
2023-03-18T06:00:01.033Z,5.79
2023-03-18T06:01:07.566Z,5.79
2023-03-18T06:02:11.017Z,5.77
2023-03-18T06:03:13.356Z,5.77
2023-03-18T06:04:17.360Z,5.77
2023-03-18T06:05:19.626Z,5.77
2023-03-18T06:06:22.785Z,5.79
2023-03-18T06:07:25.007Z,5.80
2023-03-18T06:08:27.796Z,5.81
2023-03-18T06:09:33.843Z,5.83
2023-03-18T06:10:36.068Z,5.81
2023-03-18T06:11:39.082Z,5.85
2023-03-18T06:12:41.843Z,5.85
2023-03-18T06:13:47.662Z,5.81
2023-03-18T06:14:50.260Z,5.81
2023-03-18T06:15:59.883Z,5.83
2023-03-18T06:17:04.033Z,5.85
2023-03-18T06:18:06.173Z,5.85
2023-03-18T06:19:08.412Z,5.88
2023-03-18T06:20:12.669Z,5.89
2023-03-18T06:21:15.596Z,5.90
2023-03-18T06:22:17.897Z,5.95
2023-03-18T06:23:20.834Z,5.95
2023-03-18T06:24:24.100Z,5.95
2023-03-18T06:25:26.576Z,6.00
2023-03-18T06:26:29.338Z,6.02
2023-03-18T06:27:32.136Z,6.05
2023-03-18T06:28:37.270Z,6.06
2023-03-18T06:29:45.587Z,6.10
2023-03-18T06:30:55.172Z,6.11
2023-03-18T06:31:57.821Z,6.16
2023-03-18T06:33:02.644Z,6.19
2023-03-18T06:34:05.200Z,6.21
2023-03-18T06:35:11.804Z,6.23
2023-03-18T06:36:16.862Z,6.24
2023-03-18T06:37:23.182Z,6.27
2023-03-18T06:38:27.502Z,6.27
2023-03-18T06:39:31.178Z,6.31
2023-03-18T06:40:37.808Z,6.36
2023-03-18T06:41:41.437Z,6.39
2023-03-18T06:43:00.939Z,6.39
2023-03-18T06:44:13.813Z,6.42
2023-03-18T06:45:17.283Z,6.44
2023-03-18T06:46:27.755Z,6.47
2023-03-18T06:47:30.097Z,6.49
2023-03-18T06:48:40.706Z,6.55
2023-03-18T06:49:45.198Z,6.59
2023-03-18T06:50:52.551Z,6.62
2023-03-18T06:52:04.190Z,6.69
2023-03-18T06:53:10.214Z,6.73
2023-03-18T06:54:12.435Z,6.76
2023-03-18T06:55:15.210Z,6.81
2023-03-18T06:56:19.791Z,6.84
2023-03-18T06:57:34.802Z,6.88
2023-03-18T06:58:39.140Z,6.95
2023-03-18T06:59:45.749Z,6.99
2023-03-18T07:00:48.692Z,7.04
2023-03-18T07:01:57.975Z,7.09
2023-03-18T07:03:01.489Z,7.16
2023-03-18T07:04:07.095Z,7.22
2023-03-18T07:05:10.466Z,7.29
2023-03-18T07:06:14.154Z,7.37
2023-03-18T07:07:16.759Z,7.45
2023-03-18T07:08:18.975Z,7.52
2023-03-18T07:09:21.248Z,7.58
2023-03-18T07:10:30.495Z,7.61
2023-03-18T07:11:40.789Z,7.67
2023-03-18T07:12:48.838Z,7.75
2023-03-18T07:13:53.743Z,7.83
2023-03-18T07:15:16.959Z,7.90
2023-03-18T07:16:19.673Z,7.95
2023-03-18T07:17:22.987Z,8.02
2023-03-18T07:18:25.292Z,8.01
2023-03-18T07:19:27.569Z,8.05
2023-03-18T07:20:30.364Z,8.08
2023-03-18T07:21:32.587Z,8.12
2023-03-18T07:22:37.949Z,8.14
2023-03-18T07:23:41.202Z,8.18
2023-03-18T07:24:46.846Z,8.20
2023-03-18T07:25:51.684Z,8.26
2023-03-18T07:26:54.961Z,8.30
2023-03-18T07:28:01.011Z,8.37
2023-03-18T07:29:03.964Z,8.41
2023-03-18T07:30:09.680Z,8.44
2023-03-18T07:31:11.918Z,8.47
2023-03-18T07:32:15.443Z,8.51
2023-03-18T07:33:18.026Z,8.57
2023-03-18T07:34:21.481Z,8.61
2023-03-18T07:35:23.890Z,8.66
2023-03-18T07:36:28.235Z,8.67
2023-03-18T07:37:30.754Z,8.73
2023-03-18T07:38:32.903Z,8.75
2023-03-18T07:39:37.827Z,8.80
2023-03-18T07:40:40.091Z,8.82
2023-03-18T07:41:42.251Z,8.87
2023-03-18T07:42:44.509Z,8.93
2023-03-18T07:43:48.625Z,8.98
2023-03-18T07:44:51.197Z,9.02
2023-03-18T07:45:54.690Z,9.04
2023-03-18T07:46:57.140Z,9.09
2023-03-18T07:47:59.392Z,9.11
2023-03-18T07:49:02.270Z,9.13
2023-03-18T07:50:05.926Z,9.13
2023-03-18T07:51:08.474Z,9.17
2023-03-18T07:52:11.317Z,9.17
2023-03-18T07:53:16.573Z,9.20
2023-03-18T07:54:20.461Z,9.23
2023-03-18T07:55:22.776Z,9.21
2023-03-18T07:56:25.981Z,9.23
2023-03-18T07:57:30.064Z,9.23
2023-03-18T07:58:32.750Z,9.24
2023-03-18T07:59:35.049Z,9.23
2023-03-18T08:00:38.283Z,9.25
2023-03-18T08:01:40.881Z,9.26
2023-03-18T08:02:43.237Z,9.24
2023-03-18T08:03:46.855Z,9.23
2023-03-18T08:04:49.449Z,9.25
2023-03-18T08:05:52.793Z,9.26
2023-03-18T08:06:56.754Z,9.29
2023-03-18T08:07:59.681Z,9.29
2023-03-18T08:09:03.459Z,9.34
2023-03-18T08:10:06.239Z,9.36
2023-03-18T08:11:09.495Z,9.38
2023-03-18T08:12:11.842Z,9.37
2023-03-18T08:13:14.863Z,9.38
2023-03-18T08:14:17.529Z,9.41
2023-03-18T08:15:19.987Z,9.41
2023-03-18T08:16:23.474Z,9.38
2023-03-18T08:17:26.048Z,9.41
2023-03-18T08:18:28.236Z,9.42
2023-03-18T08:19:30.606Z,9.44
2023-03-18T08:20:34.790Z,9.46
2023-03-18T08:21:38.305Z,9.50
2023-03-18T08:22:40.504Z,9.52
2023-03-18T08:23:42.937Z,9.52
2023-03-18T08:24:45.803Z,9.58
2023-03-18T08:25:50.938Z,9.58
2023-03-18T08:26:53.608Z,9.60
2023-03-18T08:27:56.855Z,9.63
2023-03-18T08:29:02.529Z,9.67
2023-03-18T08:30:06.991Z,9.69
2023-03-18T08:31:10.049Z,9.73
2023-03-18T08:32:12.923Z,9.79
2023-03-18T08:33:16.348Z,9.81
2023-03-18T08:34:18.642Z,9.87
2023-03-18T08:35:21.713Z,9.94
2023-03-18T08:36:25.217Z,10.00
2023-03-18T08:37:28.587Z,10.01
2023-03-18T08:38:30.764Z,10.07
2023-03-18T08:39:33.793Z,10.12
2023-03-18T08:40:36.022Z,10.19
2023-03-18T08:41:38.796Z,10.25
2023-03-18T08:42:41.037Z,10.32
2023-03-18T08:43:45.150Z,10.39
2023-03-18T08:44:47.569Z,10.46
2023-03-18T08:45:54.033Z,10.52
2023-03-18T08:46:56.636Z,10.56
2023-03-18T08:47:59.622Z,10.64
2023-03-18T08:49:02.357Z,10.72
2023-03-18T08:50:06.813Z,10.77
2023-03-18T08:51:09.355Z,10.82
2023-03-18T08:52:13.089Z,10.88
2023-03-18T08:53:16.848Z,10.97
2023-03-18T08:54:20.552Z,11.05
2023-03-18T08:55:24.122Z,11.13
2023-03-18T08:56:28.259Z,11.21
2023-03-18T08:57:30.846Z,11.29
2023-03-18T08:58:36.063Z,11.35
2023-03-18T08:59:39.698Z,11.43
2023-03-18T09:00:43.663Z,11.50
2023-03-18T09:01:45.987Z,11.57
2023-03-18T09:02:48.833Z,11.66
2023-03-18T09:03:54.282Z,11.73
2023-03-18T09:04:59.829Z,11.82
2023-03-18T09:06:02.337Z,11.85
2023-03-18T09:07:04.617Z,11.90
2023-03-18T09:08:06.917Z,11.96
2023-03-18T09:09:09.129Z,12.06
2023-03-18T09:10:14.512Z,12.13
2023-03-18T09:11:18.680Z,12.19
2023-03-18T09:12:20.837Z,12.26
2023-03-18T09:13:23.447Z,12.34
2023-03-18T09:14:26.718Z,12.40
2023-03-18T09:15:29.070Z,12.49
2023-03-18T09:16:31.335Z,12.57
2023-03-18T09:17:50.959Z,12.65
2023-03-18T09:18:56.307Z,12.71
2023-03-18T09:19:58.733Z,12.74
2023-03-18T09:21:01.269Z,12.79
2023-03-18T09:22:04.792Z,12.83
2023-03-18T09:23:07.970Z,12.86
2023-03-18T09:24:11.045Z,12.90
2023-03-18T09:25:13.808Z,12.92
2023-03-18T09:26:17.163Z,12.95
2023-03-18T09:27:20.484Z,13.00
2023-03-18T09:28:23.998Z,13.04
2023-03-18T09:29:27.722Z,13.11
2023-03-18T09:30:30.350Z,13.16
2023-03-18T09:31:32.773Z,13.20
2023-03-18T09:32:36.783Z,13.25
2023-03-18T09:33:39.823Z,13.31
2023-03-18T09:34:42.198Z,13.35
2023-03-18T09:35:45.467Z,13.40
2023-03-18T09:36:51.226Z,13.42
2023-03-18T09:37:55.459Z,13.45
2023-03-18T09:38:57.643Z,13.47
2023-03-18T09:40:00.612Z,13.52
2023-03-18T09:41:12.923Z,13.54
2023-03-18T09:42:17.136Z,13.57
2023-03-18T09:43:59.786Z,13.65
2023-03-18T09:45:24.679Z,13.67
2023-03-18T09:46:58.422Z,13.70
2023-03-18T09:48:28.110Z,13.74
2023-03-18T09:49:40.255Z,13.80
2023-03-18T09:50:55.230Z,13.77
2023-03-18T09:52:13.934Z,13.81
2023-03-18T09:53:21.612Z,13.82
2023-03-18T09:54:41.804Z,13.86
2023-03-18T09:55:47.404Z,13.91
2023-03-18T09:56:53.115Z,13.95
2023-03-18T09:58:01.695Z,14.00
2023-03-18T09:59:18.606Z,14.02
2023-03-18T10:00:26.620Z,14.01
2023-03-18T10:01:34.895Z,14.03
2023-03-18T10:02:43.813Z,14.04
2023-03-18T10:04:03.137Z,14.05
2023-03-18T10:05:15.360Z,14.02
2023-03-18T10:06:23.173Z,14.03
2023-03-18T10:07:37.344Z,14.04
2023-03-18T10:09:17.966Z,14.09
2023-03-18T10:10:37.572Z,14.09
2023-03-18T10:11:47.638Z,14.10
2023-03-18T10:13:10.308Z,14.09
2023-03-18T10:14:22.053Z,14.07
2023-03-18T10:15:33.239Z,14.08
2023-03-18T10:16:48.258Z,14.06
2023-03-18T10:18:01.947Z,14.09
2023-03-18T10:19:04.190Z,14.07
2023-03-18T10:20:18.206Z,14.09
2023-03-18T10:21:49.406Z,14.11
2023-03-18T10:23:27.007Z,14.10
2023-03-18T10:24:57.912Z,14.12
2023-03-18T10:26:06.416Z,14.14
2023-03-18T10:27:38.885Z,14.16
2023-03-18T10:29:05.701Z,14.16
2023-03-18T10:30:19.653Z,14.18
2023-03-18T10:31:30.105Z,14.15
2023-03-18T10:32:51.547Z,14.20
2023-03-18T10:34:03.649Z,14.25
2023-03-18T10:35:16.867Z,14.25
2023-03-18T10:36:56.635Z,14.24
2023-03-18T10:38:04.731Z,14.27
2023-03-18T10:39:19.602Z,14.29
2023-03-18T10:40:24.313Z,14.32
2023-03-18T10:41:34.813Z,14.28
2023-03-18T10:42:38.045Z,14.28
2023-03-18T10:43:42.374Z,14.30
2023-03-18T10:44:47.848Z,14.31
2023-03-18T10:46:00.010Z,14.32
2023-03-18T10:47:15.834Z,14.32
2023-03-18T10:48:34.897Z,14.31
2023-03-18T10:49:42.543Z,14.29
2023-03-18T10:50:56.842Z,14.28
2023-03-18T10:52:07.837Z,14.27
2023-03-18T10:53:36.154Z,14.28
2023-03-18T10:54:46.823Z,14.26
2023-03-18T10:56:02.824Z,14.25
2023-03-18T10:57:05.403Z,14.23
2023-03-18T10:58:16.321Z,14.21
2023-03-18T10:59:21.529Z,14.21
2023-03-18T11:00:36.108Z,14.20
2023-03-18T11:01:39.805Z,14.21
2023-03-18T11:02:42.928Z,14.22
2023-03-18T11:03:54.900Z,14.21
2023-03-18T11:05:30.522Z,14.20
2023-03-18T11:06:45.137Z,14.20
2023-03-18T11:08:06.905Z,14.21
2023-03-18T11:09:12.660Z,14.20
2023-03-18T11:10:23.948Z,14.20
2023-03-18T11:11:33.045Z,14.20
2023-03-18T11:12:36.511Z,14.23
2023-03-18T11:13:38.648Z,14.24
2023-03-18T11:14:42.492Z,14.25
2023-03-18T11:15:50.842Z,14.25
2023-03-18T11:17:03.668Z,14.28
2023-03-18T11:18:06.220Z,14.29
2023-03-18T11:19:29.955Z,14.35
2023-03-18T11:20:46.881Z,14.36
2023-03-18T11:22:02.150Z,14.40
2023-03-18T11:23:18.775Z,14.42
2023-03-18T11:24:38.638Z,14.45
2023-03-18T11:25:45.876Z,14.48
2023-03-18T11:26:56.980Z,14.52
2023-03-18T11:28:04.238Z,14.54
2023-03-18T11:29:13.527Z,14.57
2023-03-18T11:30:33.087Z,14.60
2023-03-18T11:31:49.681Z,14.62
2023-03-18T11:32:53.897Z,14.63
2023-03-18T11:33:59.458Z,14.62
2023-03-18T11:35:06.804Z,14.60
2023-03-18T11:36:14.534Z,14.60
2023-03-18T11:37:19.831Z,14.62
2023-03-18T11:38:29.802Z,14.59
2023-03-18T11:39:37.657Z,14.61
2023-03-18T11:40:40.722Z,14.62
2023-03-18T11:41:43.027Z,14.61
2023-03-18T11:42:48.082Z,14.63
2023-03-18T11:44:03.422Z,14.63
2023-03-18T11:45:29.587Z,14.63
2023-03-18T11:46:42.365Z,14.62
2023-03-18T11:47:47.275Z,14.60
2023-03-18T11:48:50.161Z,14.61
2023-03-18T11:49:52.455Z,14.59
2023-03-18T11:51:07.378Z,14.59
2023-03-18T11:52:43.293Z,14.58
2023-03-18T11:53:59.538Z,14.56
2023-03-18T11:55:12.030Z,14.60
2023-03-18T11:56:23.527Z,14.61
2023-03-18T11:57:58.217Z,14.60
2023-03-18T11:59:27.989Z,14.61
2023-03-18T12:00:46.598Z,14.62
2023-03-18T12:01:54.796Z,14.61
2023-03-18T12:03:16.890Z,14.62
2023-03-18T12:05:01.382Z,14.59
2023-03-18T12:06:21.531Z,14.61
2023-03-18T12:08:03.556Z,14.61
2023-03-18T12:09:22.986Z,14.60
2023-03-18T12:10:34.617Z,14.61
2023-03-18T12:12:07.380Z,14.57
2023-03-18T12:13:30.896Z,14.59
2023-03-18T12:15:03.801Z,14.55
2023-03-18T12:16:24.003Z,14.55
2023-03-18T12:17:41.496Z,14.54
2023-03-18T12:19:16.159Z,14.52
2023-03-18T12:20:32.733Z,14.46
2023-03-18T12:22:08.362Z,14.48
2023-03-18T12:23:41.337Z,14.48
2023-03-18T12:24:54.737Z,14.48
2023-03-18T12:26:23.522Z,14.46
2023-03-18T12:27:29.849Z,14.45
2023-03-18T12:29:17.555Z,14.45
2023-03-18T12:30:38.833Z,14.42
2023-03-18T12:31:57.493Z,14.41
2023-03-18T12:33:18.452Z,14.38
2023-03-18T12:34:24.615Z,14.36
2023-03-18T12:35:53.053Z,14.33
2023-03-18T12:37:17.537Z,14.35
2023-03-18T12:38:54.309Z,14.33
2023-03-18T12:40:12.715Z,14.33
2023-03-18T12:41:30.967Z,14.31
2023-03-18T12:42:42.618Z,14.29
2023-03-18T12:44:10.197Z,14.28
2023-03-18T12:45:25.159Z,14.28
2023-03-18T12:46:40.385Z,14.27
2023-03-18T12:47:55.147Z,14.24
2023-03-18T12:49:20.183Z,14.25
2023-03-18T12:50:38.432Z,14.24
2023-03-18T12:51:47.806Z,14.25
2023-03-18T12:53:01.083Z,14.24
2023-03-18T12:54:13.609Z,14.24
2023-03-18T12:55:29.499Z,14.27
2023-03-18T12:56:36.588Z,14.28
2023-03-18T12:57:45.517Z,14.29
2023-03-18T12:58:56.687Z,14.30
2023-03-18T13:00:10.617Z,14.32
2023-03-18T13:01:24.412Z,14.33
2023-03-18T13:02:38.810Z,14.33
2023-03-18T13:03:43.746Z,14.36
2023-03-18T13:04:55.477Z,14.38
2023-03-18T13:06:07.942Z,14.39
2023-03-18T13:07:26.359Z,14.39
2023-03-18T13:08:54.622Z,14.37
2023-03-18T13:10:09.906Z,14.36
2023-03-18T13:11:31.758Z,14.37
2023-03-18T13:12:40.912Z,14.35
2023-03-18T13:13:51.809Z,14.37
2023-03-18T13:15:02.584Z,14.39
2023-03-18T13:16:07.778Z,14.43
2023-03-18T13:17:17.423Z,14.43
2023-03-18T13:18:33.737Z,14.44
2023-03-18T13:19:37.390Z,14.45
2023-03-18T13:20:41.318Z,14.49
2023-03-18T13:21:51.445Z,14.52
2023-03-18T13:23:12.028Z,14.55
2023-03-18T13:24:40.881Z,14.57
2023-03-18T13:25:52.629Z,14.59
2023-03-18T13:27:14.032Z,14.57
2023-03-18T13:28:43.755Z,14.59
2023-03-18T13:30:06.291Z,14.56
2023-03-18T13:31:33.429Z,14.55
2023-03-18T13:32:57.142Z,14.54
2023-03-18T13:34:30.170Z,14.54
2023-03-18T13:36:11.816Z,14.49
2023-03-18T13:37:49.102Z,14.41
2023-03-18T13:39:11.722Z,14.42
2023-03-18T13:40:47.907Z,14.41
2023-03-18T13:42:19.913Z,14.38
2023-03-18T13:43:24.771Z,14.30
2023-03-18T13:44:42.647Z,14.28
2023-03-18T13:45:53.465Z,14.25
2023-03-18T13:47:02.793Z,14.28
2023-03-18T13:48:16.534Z,14.24
2023-03-18T13:49:23.967Z,14.24
2023-03-18T13:50:39.958Z,14.25
2023-03-18T13:52:02.366Z,14.25
2023-03-18T13:53:06.680Z,14.23
2023-03-18T13:54:19.036Z,14.25
2023-03-18T13:55:32.959Z,14.24
2023-03-18T13:56:42.616Z,14.27
2023-03-18T13:58:09.648Z,14.28
2023-03-18T13:59:38.994Z,14.27
2023-03-18T14:00:43.920Z,14.24
2023-03-18T14:01:50.782Z,14.26
2023-03-18T14:03:18.757Z,14.25
2023-03-18T14:04:20.941Z,14.26
2023-03-18T14:05:33.023Z,14.29
2023-03-18T14:06:35.209Z,14.29
2023-03-18T14:07:49.653Z,14.31
2023-03-18T14:08:53.404Z,14.31
2023-03-18T14:10:19.469Z,14.32
2023-03-18T14:11:28.862Z,14.31
2023-03-18T14:12:31.109Z,14.31
2023-03-18T14:13:34.066Z,14.33
2023-03-18T14:14:53.919Z,14.30
2023-03-18T14:15:58.234Z,14.28
2023-03-18T14:17:00.755Z,14.29
2023-03-18T14:18:03.623Z,14.31
2023-03-18T14:19:17.407Z,14.30
2023-03-18T14:20:19.798Z,14.31
2023-03-18T14:21:27.078Z,14.31
2023-03-18T14:22:36.555Z,14.30
2023-03-18T14:23:42.819Z,14.31
2023-03-18T14:24:46.861Z,14.31
2023-03-18T14:25:56.791Z,14.31
2023-03-18T14:27:03.841Z,14.30
2023-03-18T14:28:12.867Z,14.30
2023-03-18T14:29:28.129Z,14.28
2023-03-18T14:30:30.325Z,14.28
2023-03-18T14:31:38.602Z,14.27
2023-03-18T14:32:43.630Z,14.26
2023-03-18T14:34:24.308Z,14.26
2023-03-18T14:35:28.774Z,14.28
2023-03-18T14:36:53.531Z,14.30
2023-03-18T14:38:23.311Z,14.30
2023-03-18T14:39:40.097Z,14.24
2023-03-18T14:40:46.019Z,14.25
2023-03-18T14:41:52.928Z,14.27
2023-03-18T14:42:59.992Z,14.28
2023-03-18T14:44:27.609Z,14.27
2023-03-18T14:45:36.303Z,14.26
2023-03-18T14:46:43.401Z,14.25
2023-03-18T14:47:50.711Z,14.27
2023-03-18T14:48:55.799Z,14.23
2023-03-18T14:50:04.664Z,14.26
2023-03-18T14:51:13.166Z,14.27
2023-03-18T14:52:27.801Z,14.29
2023-03-18T14:53:35.755Z,14.28
2023-03-18T14:54:43.699Z,14.29
2023-03-18T14:55:45.894Z,14.29
2023-03-18T14:56:55.450Z,14.29